sensor_id;sensor_type;location;lat;lon;timestamp;temperature;humidity
34766;DHT22;20984;43.508;1.504;2023-11-19T00:01:55;7.40;99.90
34766;DHT22;20984;43.508;1.504;2023-11-19T00:04:22;7.40;99.90
34766;DHT22;20984;43.508;1.504;2023-11-19T00:06:48;7.40;99.90
34766;DHT22;20984;43.508;1.504;2023-11-19T00:09:13;7.40;99.90
34766;DHT22;20984;43.508;1.504;2023-11-19T00:11:42;7.30;99.90
34766;DHT22;20984;43.508;1.504;2023-11-19T00:14:07;7.40;99.90
34766;DHT22;20984;43.508;1.504;2023-11-19T00:16:34;7.30;99.90
34766;DHT22;20984;43.508;1.504;2023-11-19T00:19:00;7.30;99.90
34766;DHT22;20984;43.508;1.504;2023-11-19T00:21:25;7.30;99.90
34766;DHT22;20984;43.508;1.504;2023-11-19T00:23:54;7.30;99.90
34766;DHT22;20984;43.508;1.504;2023-11-19T00:26:19;7.20;99.90
34766;DHT22;20984;43.508;1.504;2023-11-19T00:28:45;7.20;99.90
34766;DHT22;20984;43.508;1.504;2023-11-19T00:31:13;7.20;99.90
34766;DHT22;20984;43.508;1.504;2023-11-19T00:33:39;7.20;99.90
34766;DHT22;20984;43.508;1.504;2023-11-19T00:36:05;7.20;99.90
34766;DHT22;20984;43.508;1.504;2023-11-19T00:38:31;7.20;99.90
34766;DHT22;20984;43.508;1.504;2023-11-19T00:40:57;7.20;99.90
34766;DHT22;20984;43.508;1.504;2023-11-19T00:43:22;7.10;99.90
34766;DHT22;20984;43.508;1.504;2023-11-19T00:45:48;7.10;99.90
34766;DHT22;20984;43.508;1.504;2023-11-19T00:48:16;7.10;99.90
34766;DHT22;20984;43.508;1.504;2023-11-19T00:50:42;7.10;99.90
34766;DHT22;20984;43.508;1.504;2023-11-19T00:53:09;7.00;99.90
34766;DHT22;20984;43.508;1.504;2023-11-19T00:55:35;7.00;99.90
34766;DHT22;20984;43.508;1.504;2023-11-19T00:58:01;7.00;99.90
34766;DHT22;20984;43.508;1.504;2023-11-19T01:00:26;6.90;99.90
34766;DHT22;20984;43.508;1.504;2023-11-19T01:02:52;6.90;99.90
34766;DHT22;20984;43.508;1.504;2023-11-19T01:05:19;6.90;99.90
34766;DHT22;20984;43.508;1.504;2023-11-19T01:07:47;6.90;99.90
34766;DHT22;20984;43.508;1.504;2023-11-19T01:10:13;6.90;99.90
34766;DHT22;20984;43.508;1.504;2023-11-19T01:12:41;6.90;99.90
34766;DHT22;20984;43.508;1.504;2023-11-19T01:15:08;6.80;99.90
34766;DHT22;20984;43.508;1.504;2023-11-19T01:17:34;6.80;99.90
34766;DHT22;20984;43.508;1.504;2023-11-19T01:19:59;6.80;99.90
34766;DHT22;20984;43.508;1.504;2023-11-19T01:22:25;6.80;99.90
34766;DHT22;20984;43.508;1.504;2023-11-19T01:24:51;6.80;99.90
34766;DHT22;20984;43.508;1.504;2023-11-19T01:27:17;6.80;99.90
34766;DHT22;20984;43.508;1.504;2023-11-19T01:29:43;6.70;99.90
34766;DHT22;20984;43.508;1.504;2023-11-19T01:32:08;6.80;99.90
34766;DHT22;20984;43.508;1.504;2023-11-19T01:34:34;6.80;99.90
34766;DHT22;20984;43.508;1.504;2023-11-19T01:37:01;6.80;99.90
34766;DHT22;20984;43.508;1.504;2023-11-19T01:39:26;6.80;99.90
34766;DHT22;20984;43.508;1.504;2023-11-19T01:41:52;6.80;99.90
34766;DHT22;20984;43.508;1.504;2023-11-19T01:44:19;6.80;99.90
34766;DHT22;20984;43.508;1.504;2023-11-19T01:46:47;6.80;99.90
34766;DHT22;20984;43.508;1.504;2023-11-19T01:49:15;6.80;99.90
34766;DHT22;20984;43.508;1.504;2023-11-19T01:51:41;6.80;99.90
34766;DHT22;20984;43.508;1.504;2023-11-19T01:54:07;6.80;99.90
34766;DHT22;20984;43.508;1.504;2023-11-19T01:56:34;6.80;99.90
34766;DHT22;20984;43.508;1.504;2023-11-19T01:59:00;6.80;99.90
34766;DHT22;20984;43.508;1.504;2023-11-19T02:01:26;6.70;99.90
34766;DHT22;20984;43.508;1.504;2023-11-19T02:03:52;6.70;99.90
34766;DHT22;20984;43.508;1.504;2023-11-19T02:06:18;6.70;99.90
34766;DHT22;20984;43.508;1.504;2023-11-19T02:08:44;6.70;99.90
34766;DHT22;20984;43.508;1.504;2023-11-19T02:11:10;6.70;99.90
34766;DHT22;20984;43.508;1.504;2023-11-19T02:13:37;6.60;99.90
34766;DHT22;20984;43.508;1.504;2023-11-19T02:16:04;6.60;99.90
34766;DHT22;20984;43.508;1.504;2023-11-19T02:18:30;6.60;99.90
34766;DHT22;20984;43.508;1.504;2023-11-19T02:20:59;6.60;99.90
34766;DHT22;20984;43.508;1.504;2023-11-19T02:23:29;6.60;99.90
34766;DHT22;20984;43.508;1.504;2023-11-19T02:28:34;6.50;99.90
34766;DHT22;20984;43.508;1.504;2023-11-19T02:31:01;6.50;99.90
34766;DHT22;20984;43.508;1.504;2023-11-19T02:33:26;6.40;99.90
34766;DHT22;20984;43.508;1.504;2023-11-19T02:35:52;6.40;99.90
34766;DHT22;20984;43.508;1.504;2023-11-19T02:38:18;6.40;99.90
34766;DHT22;20984;43.508;1.504;2023-11-19T02:40:43;6.40;99.90
34766;DHT22;20984;43.508;1.504;2023-11-19T02:43:09;6.40;99.90
34766;DHT22;20984;43.508;1.504;2023-11-19T02:45:34;6.40;99.90
34766;DHT22;20984;43.508;1.504;2023-11-19T02:48:01;6.40;99.90
34766;DHT22;20984;43.508;1.504;2023-11-19T02:50:27;6.40;99.90
34766;DHT22;20984;43.508;1.504;2023-11-19T02:52:54;6.40;99.90
34766;DHT22;20984;43.508;1.504;2023-11-19T02:55:22;6.40;99.90
34766;DHT22;20984;43.508;1.504;2023-11-19T02:57:49;6.40;99.90
34766;DHT22;20984;43.508;1.504;2023-11-19T03:00:19;6.40;99.90
34766;DHT22;20984;43.508;1.504;2023-11-19T03:02:49;6.40;99.90
34766;DHT22;20984;43.508;1.504;2023-11-19T03:05:24;6.40;99.90
34766;DHT22;20984;43.508;1.504;2023-11-19T03:07:50;6.40;99.90
34766;DHT22;20984;43.508;1.504;2023-11-19T03:10:16;6.40;99.90
34766;DHT22;20984;43.508;1.504;2023-11-19T03:12:43;6.40;99.90
34766;DHT22;20984;43.508;1.504;2023-11-19T03:15:10;6.40;99.90
34766;DHT22;20984;43.508;1.504;2023-11-19T03:17:38;6.30;99.90
34766;DHT22;20984;43.508;1.504;2023-11-19T03:20:05;6.30;99.90
34766;DHT22;20984;43.508;1.504;2023-11-19T03:22:32;6.30;99.90
34766;DHT22;20984;43.508;1.504;2023-11-19T03:24:59;6.30;99.90
34766;DHT22;20984;43.508;1.504;2023-11-19T03:27:25;6.20;99.90
34766;DHT22;20984;43.508;1.504;2023-11-19T03:29:50;6.30;99.90
34766;DHT22;20984;43.508;1.504;2023-11-19T03:32:16;6.20;99.90
34766;DHT22;20984;43.508;1.504;2023-11-19T03:34:42;6.30;99.90
34766;DHT22;20984;43.508;1.504;2023-11-19T03:37:07;6.20;99.90
34766;DHT22;20984;43.508;1.504;2023-11-19T03:39:34;6.20;99.90
34766;DHT22;20984;43.508;1.504;2023-11-19T03:41:59;6.20;99.90
34766;DHT22;20984;43.508;1.504;2023-11-19T03:44:27;6.10;99.90
34766;DHT22;20984;43.508;1.504;2023-11-19T03:46:52;6.10;99.90
34766;DHT22;20984;43.508;1.504;2023-11-19T03:49:18;6.10;99.90
34766;DHT22;20984;43.508;1.504;2023-11-19T03:51:43;6.10;99.90
34766;DHT22;20984;43.508;1.504;2023-11-19T03:54:09;6.10;99.90
34766;DHT22;20984;43.508;1.504;2023-11-19T03:56:35;6.00;99.90
34766;DHT22;20984;43.508;1.504;2023-11-19T03:59:00;6.00;99.90
34766;DHT22;20984;43.508;1.504;2023-11-19T04:01:26;6.10;99.90
34766;DHT22;20984;43.508;1.504;2023-11-19T04:03:51;6.10;99.90
34766;DHT22;20984;43.508;1.504;2023-11-19T04:06:19;6.10;99.90
34766;DHT22;20984;43.508;1.504;2023-11-19T04:08:45;6.10;99.90
34766;DHT22;20984;43.508;1.504;2023-11-19T04:11:10;6.00;99.90
34766;DHT22;20984;43.508;1.504;2023-11-19T04:13:36;6.00;99.90
34766;DHT22;20984;43.508;1.504;2023-11-19T04:16:02;5.90;99.90
34766;DHT22;20984;43.508;1.504;2023-11-19T04:18:28;5.90;99.90
34766;DHT22;20984;43.508;1.504;2023-11-19T04:20:53;5.90;99.90
34766;DHT22;20984;43.508;1.504;2023-11-19T04:23:19;5.80;99.90
34766;DHT22;20984;43.508;1.504;2023-11-19T04:25:44;5.80;99.90
34766;DHT22;20984;43.508;1.504;2023-11-19T04:28:10;5.90;99.90
34766;DHT22;20984;43.508;1.504;2023-11-19T04:30:36;5.90;99.90
34766;DHT22;20984;43.508;1.504;2023-11-19T04:33:03;5.90;99.90
34766;DHT22;20984;43.508;1.504;2023-11-19T04:35:28;5.90;99.90
34766;DHT22;20984;43.508;1.504;2023-11-19T04:37:54;5.90;99.90
34766;DHT22;20984;43.508;1.504;2023-11-19T04:40:23;5.90;99.90
34766;DHT22;20984;43.508;1.504;2023-11-19T04:42:48;5.90;99.90
34766;DHT22;20984;43.508;1.504;2023-11-19T04:45:14;5.90;99.90
34766;DHT22;20984;43.508;1.504;2023-11-19T04:47:42;5.80;99.90
34766;DHT22;20984;43.508;1.504;2023-11-19T04:50:08;5.80;99.90
34766;DHT22;20984;43.508;1.504;2023-11-19T04:52:38;5.80;99.90
34766;DHT22;20984;43.508;1.504;2023-11-19T04:55:05;5.80;99.90
34766;DHT22;20984;43.508;1.504;2023-11-19T04:57:31;5.80;99.90
34766;DHT22;20984;43.508;1.504;2023-11-19T04:59:58;5.80;99.90
34766;DHT22;20984;43.508;1.504;2023-11-19T05:02:24;5.80;99.90
34766;DHT22;20984;43.508;1.504;2023-11-19T05:04:49;5.80;99.90
34766;DHT22;20984;43.508;1.504;2023-11-19T05:07:15;5.80;99.90
34766;DHT22;20984;43.508;1.504;2023-11-19T05:09:40;5.70;99.90
34766;DHT22;20984;43.508;1.504;2023-11-19T05:12:06;5.70;99.90
34766;DHT22;20984;43.508;1.504;2023-11-19T05:14:35;5.70;99.90
34766;DHT22;20984;43.508;1.504;2023-11-19T05:17:01;5.70;99.90
34766;DHT22;20984;43.508;1.504;2023-11-19T05:19:26;5.60;99.90
34766;DHT22;20984;43.508;1.504;2023-11-19T05:21:52;5.60;99.90
34766;DHT22;20984;43.508;1.504;2023-11-19T05:24:18;5.60;99.90
34766;DHT22;20984;43.508;1.504;2023-11-19T05:26:43;5.60;99.90
34766;DHT22;20984;43.508;1.504;2023-11-19T05:29:09;5.60;99.90
34766;DHT22;20984;43.508;1.504;2023-11-19T05:31:35;5.60;99.90
34766;DHT22;20984;43.508;1.504;2023-11-19T05:34:00;5.60;99.90
34766;DHT22;20984;43.508;1.504;2023-11-19T05:36:26;5.60;99.90
34766;DHT22;20984;43.508;1.504;2023-11-19T05:38:54;5.60;99.90
34766;DHT22;20984;43.508;1.504;2023-11-19T05:41:20;5.60;99.90
34766;DHT22;20984;43.508;1.504;2023-11-19T05:43:45;5.60;99.90
34766;DHT22;20984;43.508;1.504;2023-11-19T05:46:11;5.60;99.90
34766;DHT22;20984;43.508;1.504;2023-11-19T05:48:39;5.60;99.90
34766;DHT22;20984;43.508;1.504;2023-11-19T05:51:05;5.60;99.90
34766;DHT22;20984;43.508;1.504;2023-11-19T05:53:31;5.60;99.90
34766;DHT22;20984;43.508;1.504;2023-11-19T05:55:57;5.60;99.90
34766;DHT22;20984;43.508;1.504;2023-11-19T05:58:24;5.60;99.90
34766;DHT22;20984;43.508;1.504;2023-11-19T06:00:52;5.60;99.90
34766;DHT22;20984;43.508;1.504;2023-11-19T06:03:17;5.70;99.90
34766;DHT22;20984;43.508;1.504;2023-11-19T06:05:47;5.70;99.90
34766;DHT22;20984;43.508;1.504;2023-11-19T06:08:12;5.70;99.90
34766;DHT22;20984;43.508;1.504;2023-11-19T06:10:41;5.60;99.90
34766;DHT22;20984;43.508;1.504;2023-11-19T06:13:07;5.60;99.90
34766;DHT22;20984;43.508;1.504;2023-11-19T06:15:35;5.60;99.90
34766;DHT22;20984;43.508;1.504;2023-11-19T06:18:01;5.60;99.90
34766;DHT22;20984;43.508;1.504;2023-11-19T06:20:32;5.60;99.90
34766;DHT22;20984;43.508;1.504;2023-11-19T06:22:59;5.60;99.90
34766;DHT22;20984;43.508;1.504;2023-11-19T06:25:25;5.60;99.90
34766;DHT22;20984;43.508;1.504;2023-11-19T06:27:51;5.70;99.90
34766;DHT22;20984;43.508;1.504;2023-11-19T06:30:17;5.70;99.90
34766;DHT22;20984;43.508;1.504;2023-11-19T06:32:43;5.70;99.90
34766;DHT22;20984;43.508;1.504;2023-11-19T06:35:09;5.60;99.90
34766;DHT22;20984;43.508;1.504;2023-11-19T06:37:36;5.70;99.90
34766;DHT22;20984;43.508;1.504;2023-11-19T06:40:02;5.60;99.90
34766;DHT22;20984;43.508;1.504;2023-11-19T06:42:30;5.60;99.90
34766;DHT22;20984;43.508;1.504;2023-11-19T06:44:55;5.60;99.90
34766;DHT22;20984;43.508;1.504;2023-11-19T06:47:26;5.60;99.90
34766;DHT22;20984;43.508;1.504;2023-11-19T06:49:52;5.60;99.90
34766;DHT22;20984;43.508;1.504;2023-11-19T06:52:18;5.60;99.90
34766;DHT22;20984;43.508;1.504;2023-11-19T06:54:44;5.60;99.90
34766;DHT22;20984;43.508;1.504;2023-11-19T06:57:11;5.60;99.90
34766;DHT22;20984;43.508;1.504;2023-11-19T06:59:37;5.60;99.90
34766;DHT22;20984;43.508;1.504;2023-11-19T07:02:03;5.60;99.90
34766;DHT22;20984;43.508;1.504;2023-11-19T07:04:30;5.60;99.90
34766;DHT22;20984;43.508;1.504;2023-11-19T07:06:55;5.60;99.90
34766;DHT22;20984;43.508;1.504;2023-11-19T07:09:21;5.60;99.90
34766;DHT22;20984;43.508;1.504;2023-11-19T07:11:48;5.70;99.90
34766;DHT22;20984;43.508;1.504;2023-11-19T07:14:15;5.70;99.90
34766;DHT22;20984;43.508;1.504;2023-11-19T07:16:41;5.80;99.90
34766;DHT22;20984;43.508;1.504;2023-11-19T07:19:08;5.80;99.90
34766;DHT22;20984;43.508;1.504;2023-11-19T07:21:33;5.80;99.90
34766;DHT22;20984;43.508;1.504;2023-11-19T07:23:59;5.80;99.90
34766;DHT22;20984;43.508;1.504;2023-11-19T07:26:25;5.90;99.90
34766;DHT22;20984;43.508;1.504;2023-11-19T07:28:51;5.90;99.90
34766;DHT22;20984;43.508;1.504;2023-11-19T07:31:17;6.00;99.90
34766;DHT22;20984;43.508;1.504;2023-11-19T07:33:46;6.00;99.90
34766;DHT22;20984;43.508;1.504;2023-11-19T07:36:13;6.00;99.90
34766;DHT22;20984;43.508;1.504;2023-11-19T07:38:39;6.10;99.90
34766;DHT22;20984;43.508;1.504;2023-11-19T07:41:07;6.10;99.90
34766;DHT22;20984;43.508;1.504;2023-11-19T07:43:39;6.20;99.90
34766;DHT22;20984;43.508;1.504;2023-11-19T07:46:04;6.30;99.90
34766;DHT22;20984;43.508;1.504;2023-11-19T07:48:33;6.40;99.90
34766;DHT22;20984;43.508;1.504;2023-11-19T07:51:00;6.40;99.90
34766;DHT22;20984;43.508;1.504;2023-11-19T07:53:26;6.40;99.90
34766;DHT22;20984;43.508;1.504;2023-11-19T07:55:52;6.50;99.90
34766;DHT22;20984;43.508;1.504;2023-11-19T07:58:17;6.60;99.90
34766;DHT22;20984;43.508;1.504;2023-11-19T08:00:43;6.70;99.90
34766;DHT22;20984;43.508;1.504;2023-11-19T08:03:09;6.80;99.90
34766;DHT22;20984;43.508;1.504;2023-11-19T08:05:34;6.90;99.90
34766;DHT22;20984;43.508;1.504;2023-11-19T08:08:00;6.90;99.90
34766;DHT22;20984;43.508;1.504;2023-11-19T08:10:26;7.00;99.90
34766;DHT22;20984;43.508;1.504;2023-11-19T08:12:52;7.00;99.90
34766;DHT22;20984;43.508;1.504;2023-11-19T08:15:17;7.10;99.90
34766;DHT22;20984;43.508;1.504;2023-11-19T08:17:43;7.20;99.90
34766;DHT22;20984;43.508;1.504;2023-11-19T08:20:09;7.20;99.90
34766;DHT22;20984;43.508;1.504;2023-11-19T08:22:39;7.30;99.90
34766;DHT22;20984;43.508;1.504;2023-11-19T08:25:05;7.50;99.90
34766;DHT22;20984;43.508;1.504;2023-11-19T08:27:31;7.50;99.90
34766;DHT22;20984;43.508;1.504;2023-11-19T08:29:57;7.60;99.90
34766;DHT22;20984;43.508;1.504;2023-11-19T08:32:26;7.80;99.90
34766;DHT22;20984;43.508;1.504;2023-11-19T08:34:52;7.80;99.90
34766;DHT22;20984;43.508;1.504;2023-11-19T08:37:18;7.90;99.90
34766;DHT22;20984;43.508;1.504;2023-11-19T08:39:47;8.00;99.90
34766;DHT22;20984;43.508;1.504;2023-11-19T08:42:13;8.10;99.90
34766;DHT22;20984;43.508;1.504;2023-11-19T08:44:39;8.30;99.90
34766;DHT22;20984;43.508;1.504;2023-11-19T08:47:06;8.30;99.90
34766;DHT22;20984;43.508;1.504;2023-11-19T08:49:31;8.40;99.90
34766;DHT22;20984;43.508;1.504;2023-11-19T08:51:57;8.60;99.90
34766;DHT22;20984;43.508;1.504;2023-11-19T08:54:22;8.70;99.90
34766;DHT22;20984;43.508;1.504;2023-11-19T08:56:48;8.80;99.90
34766;DHT22;20984;43.508;1.504;2023-11-19T08:59:14;8.90;99.90
34766;DHT22;20984;43.508;1.504;2023-11-19T09:01:40;9.00;99.90
34766;DHT22;20984;43.508;1.504;2023-11-19T09:04:06;9.10;99.90
34766;DHT22;20984;43.508;1.504;2023-11-19T09:06:32;9.20;99.90
34766;DHT22;20984;43.508;1.504;2023-11-19T09:08:58;9.30;99.90
34766;DHT22;20984;43.508;1.504;2023-11-19T09:11:27;9.40;99.90
34766;DHT22;20984;43.508;1.504;2023-11-19T09:13:53;9.50;99.90
34766;DHT22;20984;43.508;1.504;2023-11-19T09:16:18;9.50;99.90
34766;DHT22;20984;43.508;1.504;2023-11-19T09:18:44;9.60;99.90
34766;DHT22;20984;43.508;1.504;2023-11-19T09:21:13;9.70;99.90
34766;DHT22;20984;43.508;1.504;2023-11-19T09:23:39;9.90;99.90
34766;DHT22;20984;43.508;1.504;2023-11-19T09:26:05;9.90;99.90
34766;DHT22;20984;43.508;1.504;2023-11-19T09:28:32;10.00;99.90
34766;DHT22;20984;43.508;1.504;2023-11-19T09:30:57;10.10;99.90
34766;DHT22;20984;43.508;1.504;2023-11-19T09:33:24;10.20;99.90
34766;DHT22;20984;43.508;1.504;2023-11-19T09:35:50;10.20;99.90
34766;DHT22;20984;43.508;1.504;2023-11-19T09:38:16;10.30;99.90
34766;DHT22;20984;43.508;1.504;2023-11-19T09:40:42;10.40;99.90
34766;DHT22;20984;43.508;1.504;2023-11-19T09:43:08;10.50;99.90
34766;DHT22;20984;43.508;1.504;2023-11-19T09:45:48;10.60;99.90
34766;DHT22;20984;43.508;1.504;2023-11-19T09:48:17;10.70;99.90
34766;DHT22;20984;43.508;1.504;2023-11-19T09:50:47;10.70;99.90
34766;DHT22;20984;43.508;1.504;2023-11-19T09:53:16;10.80;99.90
34766;DHT22;20984;43.508;1.504;2023-11-19T09:55:42;10.90;99.90
34766;DHT22;20984;43.508;1.504;2023-11-19T09:58:08;11.00;99.90
34766;DHT22;20984;43.508;1.504;2023-11-19T10:00:35;11.10;99.90
34766;DHT22;20984;43.508;1.504;2023-11-19T10:03:01;11.10;99.90
34766;DHT22;20984;43.508;1.504;2023-11-19T10:05:27;11.20;99.90
34766;DHT22;20984;43.508;1.504;2023-11-19T10:07:53;11.20;99.90
34766;DHT22;20984;43.508;1.504;2023-11-19T10:10:21;11.30;99.90
34766;DHT22;20984;43.508;1.504;2023-11-19T10:12:46;11.30;99.90
34766;DHT22;20984;43.508;1.504;2023-11-19T10:15:23;11.40;99.90
34766;DHT22;20984;43.508;1.504;2023-11-19T10:17:50;11.50;99.90
34766;DHT22;20984;43.508;1.504;2023-11-19T10:20:16;11.50;99.90
34766;DHT22;20984;43.508;1.504;2023-11-19T10:22:42;11.60;99.90
34766;DHT22;20984;43.508;1.504;2023-11-19T10:25:25;11.70;99.90
34766;DHT22;20984;43.508;1.504;2023-11-19T10:27:55;11.80;99.90
34766;DHT22;20984;43.508;1.504;2023-11-19T10:30:26;11.90;99.90
34766;DHT22;20984;43.508;1.504;2023-11-19T10:33:08;12.00;99.90
34766;DHT22;20984;43.508;1.504;2023-11-19T10:35:56;12.20;99.90
34766;DHT22;20984;43.508;1.504;2023-11-19T10:38:22;12.30;99.90
34766;DHT22;20984;43.508;1.504;2023-11-19T10:40:48;12.40;99.90
34766;DHT22;20984;43.508;1.504;2023-11-19T10:43:14;12.60;99.90
34766;DHT22;20984;43.508;1.504;2023-11-19T10:45:40;12.70;99.90
34766;DHT22;20984;43.508;1.504;2023-11-19T10:48:06;12.90;99.90
34766;DHT22;20984;43.508;1.504;2023-11-19T10:50:36;13.00;99.90
34766;DHT22;20984;43.508;1.504;2023-11-19T10:53:04;13.20;99.90
34766;DHT22;20984;43.508;1.504;2023-11-19T10:55:31;13.20;99.90
34766;DHT22;20984;43.508;1.504;2023-11-19T10:58:05;13.30;99.90
34766;DHT22;20984;43.508;1.504;2023-11-19T11:00:38;13.40;99.90
34766;DHT22;20984;43.508;1.504;2023-11-19T11:03:18;13.60;99.90
34766;DHT22;20984;43.508;1.504;2023-11-19T11:05:47;13.70;99.90
34766;DHT22;20984;43.508;1.504;2023-11-19T11:08:13;13.70;99.90
34766;DHT22;20984;43.508;1.504;2023-11-19T11:10:48;13.80;99.90
34766;DHT22;20984;43.508;1.504;2023-11-19T11:13:17;13.80;99.90
34766;DHT22;20984;43.508;1.504;2023-11-19T11:15:44;13.80;99.90
34766;DHT22;20984;43.508;1.504;2023-11-19T11:18:12;13.90;99.90
34766;DHT22;20984;43.508;1.504;2023-11-19T11:20:39;14.00;99.90
34766;DHT22;20984;43.508;1.504;2023-11-19T11:28:43;14.00;99.90
34766;DHT22;20984;43.508;1.504;2023-11-19T11:37:20;14.10;99.90
34766;DHT22;20984;43.508;1.504;2023-11-19T11:39:46;14.10;99.90
34766;DHT22;20984;43.508;1.504;2023-11-19T11:45:07;14.20;99.90
34766;DHT22;20984;43.508;1.504;2023-11-19T11:50:09;14.40;99.90
34766;DHT22;20984;43.508;1.504;2023-11-19T11:55:28;14.60;99.90
34766;DHT22;20984;43.508;1.504;2023-11-19T11:57:55;14.60;99.90
34766;DHT22;20984;43.508;1.504;2023-11-19T12:03:02;14.70;99.90
34766;DHT22;20984;43.508;1.504;2023-11-19T12:05:30;14.80;99.90
34766;DHT22;20984;43.508;1.504;2023-11-19T12:07:56;14.80;99.90
34766;DHT22;20984;43.508;1.504;2023-11-19T12:10:26;14.80;99.90
34766;DHT22;20984;43.508;1.504;2023-11-19T12:12:58;14.90;99.90
34766;DHT22;20984;43.508;1.504;2023-11-19T12:15:24;14.90;99.90
34766;DHT22;20984;43.508;1.504;2023-11-19T12:17:52;15.00;99.90
34766;DHT22;20984;43.508;1.504;2023-11-19T12:20:19;15.10;99.90
34766;DHT22;20984;43.508;1.504;2023-11-19T12:22:47;15.10;99.90
34766;DHT22;20984;43.508;1.504;2023-11-19T12:25:15;15.10;99.90
34766;DHT22;20984;43.508;1.504;2023-11-19T12:27:48;15.20;99.90
34766;DHT22;20984;43.508;1.504;2023-11-19T12:30:24;15.20;99.90
34766;DHT22;20984;43.508;1.504;2023-11-19T12:32:51;15.20;99.90
34766;DHT22;20984;43.508;1.504;2023-11-19T12:35:18;15.20;99.90
34766;DHT22;20984;43.508;1.504;2023-11-19T12:37:46;15.30;99.90
34766;DHT22;20984;43.508;1.504;2023-11-19T12:40:16;15.30;99.90
34766;DHT22;20984;43.508;1.504;2023-11-19T12:42:49;15.40;99.90
34766;DHT22;20984;43.508;1.504;2023-11-19T12:45:15;15.40;99.90
34766;DHT22;20984;43.508;1.504;2023-11-19T12:47:45;15.50;99.90
34766;DHT22;20984;43.508;1.504;2023-11-19T12:50:15;15.60;99.90
34766;DHT22;20984;43.508;1.504;2023-11-19T12:52:42;15.70;99.90
34766;DHT22;20984;43.508;1.504;2023-11-19T12:55:28;15.80;99.90
34766;DHT22;20984;43.508;1.504;2023-11-19T12:57:55;15.90;99.90
34766;DHT22;20984;43.508;1.504;2023-11-19T13:00:25;15.90;99.90
34766;DHT22;20984;43.508;1.504;2023-11-19T13:02:53;16.00;99.90
34766;DHT22;20984;43.508;1.504;2023-11-19T13:05:29;16.00;99.90
34766;DHT22;20984;43.508;1.504;2023-11-19T13:08:07;15.90;99.90
34766;DHT22;20984;43.508;1.504;2023-11-19T13:13:13;15.90;99.90
34766;DHT22;20984;43.508;1.504;2023-11-19T13:15:39;15.90;99.90
34766;DHT22;20984;43.508;1.504;2023-11-19T13:18:05;16.00;99.90
34766;DHT22;20984;43.508;1.504;2023-11-19T13:20:32;16.00;99.90
34766;DHT22;20984;43.508;1.504;2023-11-19T13:22:59;16.00;99.90
34766;DHT22;20984;43.508;1.504;2023-11-19T13:25:26;16.10;99.90
34766;DHT22;20984;43.508;1.504;2023-11-19T13:27:52;16.10;99.90
34766;DHT22;20984;43.508;1.504;2023-11-19T13:30:18;16.20;99.90
34766;DHT22;20984;43.508;1.504;2023-11-19T13:32:44;16.40;99.90
34766;DHT22;20984;43.508;1.504;2023-11-19T13:35:13;16.40;99.90
34766;DHT22;20984;43.508;1.504;2023-11-19T13:37:39;16.30;99.90
34766;DHT22;20984;43.508;1.504;2023-11-19T13:40:07;16.30;99.90
34766;DHT22;20984;43.508;1.504;2023-11-19T13:42:33;16.30;99.90
34766;DHT22;20984;43.508;1.504;2023-11-19T13:44:58;16.10;99.90
34766;DHT22;20984;43.508;1.504;2023-11-19T13:47:24;16.10;99.90
34766;DHT22;20984;43.508;1.504;2023-11-19T13:49:50;16.10;99.90
34766;DHT22;20984;43.508;1.504;2023-11-19T13:52:15;16.20;99.90
34766;DHT22;20984;43.508;1.504;2023-11-19T13:54:41;16.20;99.90
34766;DHT22;20984;43.508;1.504;2023-11-19T13:57:07;16.20;99.90
34766;DHT22;20984;43.508;1.504;2023-11-19T13:59:32;16.10;99.90
34766;DHT22;20984;43.508;1.504;2023-11-19T14:01:58;15.90;99.90
34766;DHT22;20984;43.508;1.504;2023-11-19T14:04:24;15.90;99.90
34766;DHT22;20984;43.508;1.504;2023-11-19T14:06:50;15.90;99.90
34766;DHT22;20984;43.508;1.504;2023-11-19T14:09:16;15.80;99.90
34766;DHT22;20984;43.508;1.504;2023-11-19T14:11:43;15.80;99.90
34766;DHT22;20984;43.508;1.504;2023-11-19T14:14:09;15.70;99.90
34766;DHT22;20984;43.508;1.504;2023-11-19T14:16:34;15.60;99.90
34766;DHT22;20984;43.508;1.504;2023-11-19T14:19:00;15.50;99.90
34766;DHT22;20984;43.508;1.504;2023-11-19T14:21:26;15.50;99.90
34766;DHT22;20984;43.508;1.504;2023-11-19T14:23:52;15.40;99.90
34766;DHT22;20984;43.508;1.504;2023-11-19T14:26:18;15.30;99.90
34766;DHT22;20984;43.508;1.504;2023-11-19T14:28:44;15.10;99.90
34766;DHT22;20984;43.508;1.504;2023-11-19T14:31:09;15.10;99.90
34766;DHT22;20984;43.508;1.504;2023-11-19T14:33:35;15.00;99.90
34766;DHT22;20984;43.508;1.504;2023-11-19T14:36:03;14.90;99.90
34766;DHT22;20984;43.508;1.504;2023-11-19T14:38:30;14.90;99.90
34766;DHT22;20984;43.508;1.504;2023-11-19T14:40:55;14.80;99.90
34766;DHT22;20984;43.508;1.504;2023-11-19T14:43:21;14.80;99.90
34766;DHT22;20984;43.508;1.504;2023-11-19T14:45:46;14.80;99.90
34766;DHT22;20984;43.508;1.504;2023-11-19T14:48:12;14.80;99.90
34766;DHT22;20984;43.508;1.504;2023-11-19T14:50:38;14.80;99.90
34766;DHT22;20984;43.508;1.504;2023-11-19T14:53:03;14.70;99.90
34766;DHT22;20984;43.508;1.504;2023-11-19T14:55:29;14.60;99.90
34766;DHT22;20984;43.508;1.504;2023-11-19T14:57:55;14.60;99.90
34766;DHT22;20984;43.508;1.504;2023-11-19T15:00:22;14.50;99.90
34766;DHT22;20984;43.508;1.504;2023-11-19T15:02:47;14.50;99.90
34766;DHT22;20984;43.508;1.504;2023-11-19T15:05:13;14.40;99.90
34766;DHT22;20984;43.508;1.504;2023-11-19T15:07:39;14.40;99.90
34766;DHT22;20984;43.508;1.504;2023-11-19T15:10:08;14.50;99.90
34766;DHT22;20984;43.508;1.504;2023-11-19T15:12:39;14.60;99.90
34766;DHT22;20984;43.508;1.504;2023-11-19T15:15:09;14.60;99.90
34766;DHT22;20984;43.508;1.504;2023-11-19T15:17:37;14.60;99.90
34766;DHT22;20984;43.508;1.504;2023-11-19T15:20:03;14.60;99.90
34766;DHT22;20984;43.508;1.504;2023-11-19T15:22:29;14.70;99.90
34766;DHT22;20984;43.508;1.504;2023-11-19T15:24:55;14.70;99.90
34766;DHT22;20984;43.508;1.504;2023-11-19T15:27:21;14.80;99.90
34766;DHT22;20984;43.508;1.504;2023-11-19T15:29:47;14.80;99.90
34766;DHT22;20984;43.508;1.504;2023-11-19T15:32:14;14.80;99.90
34766;DHT22;20984;43.508;1.504;2023-11-19T15:34:39;14.90;99.90
34766;DHT22;20984;43.508;1.504;2023-11-19T15:37:07;14.80;99.90
34766;DHT22;20984;43.508;1.504;2023-11-19T15:39:33;14.80;99.90
34766;DHT22;20984;43.508;1.504;2023-11-19T15:42:01;14.70;99.90
34766;DHT22;20984;43.508;1.504;2023-11-19T15:44:27;14.70;99.90
34766;DHT22;20984;43.508;1.504;2023-11-19T15:46:54;14.60;99.90
34766;DHT22;20984;43.508;1.504;2023-11-19T15:49:20;14.50;99.90
34766;DHT22;20984;43.508;1.504;2023-11-19T15:51:45;14.30;99.90
34766;DHT22;20984;43.508;1.504;2023-11-19T15:54:11;14.20;99.90
34766;DHT22;20984;43.508;1.504;2023-11-19T15:56:37;14.10;99.90
34766;DHT22;20984;43.508;1.504;2023-11-19T15:59:03;14.00;99.90
34766;DHT22;20984;43.508;1.504;2023-11-19T16:01:30;13.90;99.90
34766;DHT22;20984;43.508;1.504;2023-11-19T16:03:56;13.90;99.90
34766;DHT22;20984;43.508;1.504;2023-11-19T16:06:22;13.80;99.90